createdAt,value
2022-09-28T00:00:01.446Z,20.34
2022-09-28T00:00:11.435Z,20.37
2022-09-28T00:00:21.442Z,20.37
2022-09-28T00:00:31.438Z,20.37
2022-09-28T00:00:41.533Z,20.37
2022-09-28T00:00:51.435Z,20.37
2022-09-28T00:01:01.437Z,20.37
2022-09-28T00:01:11.433Z,20.40
2022-09-28T00:01:31.495Z,20.35
2022-09-28T00:01:41.575Z,20.37
2022-09-28T00:01:51.568Z,20.35
2022-09-28T00:02:01.532Z,20.34
2022-09-28T00:02:11.549Z,20.38
2022-09-28T00:02:21.518Z,20.38
2022-09-28T00:02:31.608Z,20.37
2022-09-28T00:02:41.640Z,20.38
2022-09-28T00:02:51.518Z,20.35
2022-09-28T00:03:01.492Z,20.38
2022-09-28T00:03:11.501Z,20.37
2022-09-28T00:03:21.419Z,20.34
2022-09-28T00:03:31.417Z,20.38
2022-09-28T00:03:41.431Z,20.35
2022-09-28T00:03:51.415Z,20.37
2022-09-28T00:04:01.416Z,20.35
2022-09-28T00:04:11.411Z,20.34
2022-09-28T00:04:21.414Z,20.35
2022-09-28T00:04:31.409Z,20.35
2022-09-28T00:04:41.410Z,20.38
2022-09-28T00:04:51.406Z,20.35
2022-09-28T00:05:01.412Z,20.37
2022-09-28T00:05:11.414Z,20.35
2022-09-28T00:05:21.403Z,20.33
2022-09-28T00:05:31.404Z,20.35
2022-09-28T00:05:41.400Z,20.35
2022-09-28T00:05:51.404Z,20.35
2022-09-28T00:06:01.398Z,20.37
2022-09-28T00:06:11.401Z,20.35
2022-09-28T00:06:31.398Z,20.37
2022-09-28T00:06:41.399Z,20.37
2022-09-28T00:06:51.396Z,20.34
2022-09-28T00:07:01.393Z,20.35
2022-09-28T00:07:11.395Z,20.34
2022-09-28T00:07:21.388Z,20.34
2022-09-28T00:07:31.393Z,20.35
2022-09-28T00:07:41.388Z,20.35
2022-09-28T00:07:51.391Z,20.33
2022-09-28T00:08:01.385Z,20.35
2022-09-28T00:08:11.392Z,20.35
2022-09-28T00:08:21.382Z,20.35
2022-09-28T00:08:31.385Z,20.35
2022-09-28T00:08:41.380Z,20.35
2022-09-28T00:08:51.383Z,20.38
2022-09-28T00:09:01.376Z,20.35
2022-09-28T00:09:11.382Z,20.37
2022-09-28T00:09:21.385Z,20.35
2022-09-28T00:09:31.379Z,20.37
2022-09-28T00:09:41.371Z,20.37
2022-09-28T00:09:51.373Z,20.34
2022-09-28T00:10:01.484Z,20.37
2022-09-28T00:10:11.372Z,20.41
2022-09-28T00:10:21.369Z,20.34
2022-09-28T00:10:31.372Z,20.35
2022-09-28T00:10:41.365Z,20.35
2022-09-28T00:10:51.366Z,20.35
2022-09-28T00:11:01.388Z,20.34
2022-09-28T00:11:11.366Z,20.35
2022-09-28T00:11:31.364Z,20.38
2022-09-28T00:11:41.360Z,20.35
2022-09-28T00:11:51.358Z,20.35
2022-09-28T00:12:01.360Z,20.34
2022-09-28T00:12:11.366Z,20.37
2022-09-28T00:12:21.354Z,20.35
2022-09-28T00:12:31.362Z,20.40
2022-09-28T00:12:41.353Z,20.35
2022-09-28T00:12:51.354Z,20.33
2022-09-28T00:13:01.350Z,20.35
2022-09-28T00:13:11.354Z,20.37
2022-09-28T00:13:21.348Z,20.35
2022-09-28T00:13:31.352Z,20.35
2022-09-28T00:13:41.342Z,20.34
2022-09-28T00:14:01.343Z,20.37
2022-09-28T00:14:11.343Z,20.37
2022-09-28T00:14:21.339Z,20.35
2022-09-28T00:14:31.342Z,20.35
2022-09-28T00:14:41.338Z,20.35
2022-09-28T00:14:51.341Z,20.35
2022-09-28T00:15:01.335Z,20.35
2022-09-28T00:15:11.339Z,20.35
2022-09-28T00:15:21.341Z,20.35
2022-09-28T00:15:31.334Z,20.33
2022-09-28T00:15:41.329Z,20.35
2022-09-28T00:15:51.334Z,20.34
2022-09-28T00:16:01.412Z,20.35
2022-09-28T00:16:11.509Z,20.37
2022-09-28T00:16:31.386Z,20.35
2022-09-28T00:16:41.352Z,20.35
2022-09-28T00:16:51.427Z,20.33
2022-09-28T00:17:01.325Z,20.35
2022-09-28T00:17:11.324Z,20.34
2022-09-28T00:17:21.319Z,20.37
2022-09-28T00:17:31.323Z,20.33
2022-09-28T00:17:41.316Z,20.34
2022-09-28T00:17:51.318Z,20.34
2022-09-28T00:18:01.317Z,20.35
2022-09-28T00:18:11.319Z,20.35
2022-09-28T00:18:21.312Z,20.34
2022-09-28T00:18:31.314Z,20.35
2022-09-28T00:18:41.312Z,20.34
2022-09-28T00:19:01.306Z,20.37
2022-09-28T00:19:11.315Z,20.34
2022-09-28T00:19:21.306Z,20.35
2022-09-28T00:19:31.310Z,20.34
2022-09-28T00:19:41.302Z,20.35
2022-09-28T00:19:51.306Z,20.35
2022-09-28T00:20:01.298Z,20.35
2022-09-28T00:20:11.305Z,20.35
2022-09-28T00:20:21.299Z,20.35
2022-09-28T00:20:31.301Z,20.37
2022-09-28T00:20:41.297Z,20.34
2022-09-28T00:20:51.299Z,20.35
2022-09-28T00:21:01.293Z,20.35
2022-09-28T00:21:11.297Z,20.35
2022-09-28T00:21:31.296Z,20.35
2022-09-28T00:21:41.290Z,20.35
2022-09-28T00:21:51.292Z,20.35
2022-09-28T00:22:01.289Z,20.34
2022-09-28T00:22:11.289Z,20.34
2022-09-28T00:22:21.286Z,20.33
2022-09-28T00:22:31.287Z,20.35
2022-09-28T00:22:41.281Z,20.34
2022-09-28T00:22:51.297Z,20.35
2022-09-28T00:23:01.281Z,20.34
2022-09-28T00:23:11.283Z,20.34
2022-09-28T00:23:21.281Z,20.34
2022-09-28T00:23:31.278Z,20.34
2022-09-28T00:23:41.277Z,20.35
2022-09-28T00:23:51.277Z,20.37
2022-09-28T00:24:01.272Z,20.33
2022-09-28T00:24:11.274Z,20.35
2022-09-28T00:24:26.626Z,20.34
2022-09-28T00:24:32.079Z,20.35
2022-09-28T00:24:41.268Z,20.35
2022-09-28T00:24:51.272Z,20.37
2022-09-28T00:25:01.266Z,20.35
2022-09-28T00:25:11.273Z,20.34
2022-09-28T00:25:21.260Z,20.34
2022-09-28T00:25:31.269Z,20.34
2022-09-28T00:25:41.266Z,20.35
2022-09-28T00:25:51.262Z,20.33
2022-09-28T00:26:01.259Z,20.34
2022-09-28T00:26:18.120Z,20.31
2022-09-28T00:26:22.801Z,20.31
2022-09-28T00:26:32.784Z,20.33
2022-09-28T00:26:52.780Z,20.35
2022-09-28T00:27:02.783Z,20.34
2022-09-28T00:27:12.777Z,20.33
2022-09-28T00:27:22.776Z,20.33
2022-09-28T00:27:32.777Z,20.33
2022-09-28T00:27:42.772Z,20.34
2022-09-28T00:27:52.779Z,20.33
2022-09-28T00:28:02.773Z,20.37
2022-09-28T00:28:12.904Z,20.35
2022-09-28T00:28:22.770Z,20.33
2022-09-28T00:28:32.774Z,20.34
2022-09-28T00:28:42.777Z,20.33
2022-09-28T00:28:52.767Z,20.35
2022-09-28T00:29:12.840Z,20.35
2022-09-28T00:29:22.774Z,20.34
2022-09-28T00:29:32.764Z,20.34
2022-09-28T00:29:42.756Z,20.34
2022-09-28T00:29:52.760Z,20.35
2022-09-28T00:30:02.753Z,20.33
2022-09-28T00:30:12.759Z,20.31
2022-09-28T00:30:22.756Z,20.31
2022-09-28T00:30:32.754Z,20.33
2022-09-28T00:30:42.749Z,20.31
2022-09-28T00:30:52.752Z,20.31
2022-09-28T00:31:02.813Z,20.34
2022-09-28T00:31:12.768Z,20.33
2022-09-28T00:31:22.809Z,20.34
2022-09-28T00:31:32.936Z,20.33
2022-09-28T00:31:42.839Z,20.34
2022-09-28T00:31:52.840Z,20.33
2022-09-28T00:32:02.812Z,20.35
2022-09-28T00:32:12.745Z,20.33
2022-09-28T00:32:22.735Z,20.33
2022-09-28T00:32:32.745Z,20.34
2022-09-28T00:32:42.738Z,20.31
2022-09-28T00:32:52.739Z,20.31
2022-09-28T00:33:02.734Z,20.35
2022-09-28T00:33:12.738Z,20.34
2022-09-28T00:33:22.732Z,20.34
2022-09-28T00:33:32.731Z,20.35
2022-09-28T00:33:42.727Z,20.34
2022-09-28T00:33:52.731Z,20.34
2022-09-28T00:34:02.726Z,20.34
2022-09-28T00:34:22.724Z,20.35
2022-09-28T00:34:32.726Z,20.35
2022-09-28T00:34:42.722Z,20.33
2022-09-28T00:34:52.725Z,20.33
2022-09-28T00:35:02.741Z,20.35
2022-09-28T00:35:12.721Z,20.34
2022-09-28T00:35:22.720Z,20.34
2022-09-28T00:35:32.718Z,20.33
2022-09-28T00:35:42.714Z,20.33
2022-09-28T00:35:52.719Z,20.33
2022-09-28T00:36:02.712Z,20.34
2022-09-28T00:36:12.714Z,20.31
2022-09-28T00:36:22.708Z,20.33
2022-09-28T00:36:32.715Z,20.31
2022-09-28T00:36:42.712Z,20.33
2022-09-28T00:36:52.709Z,20.33
2022-09-28T00:37:02.706Z,20.34
2022-09-28T00:37:12.707Z,20.33
2022-09-28T00:37:22.702Z,20.34
2022-09-28T00:37:32.720Z,20.30
2022-09-28T00:37:42.702Z,20.34
2022-09-28T00:37:52.724Z,20.31
2022-09-28T00:38:02.700Z,20.34
2022-09-28T00:38:12.700Z,20.33
2022-09-28T00:38:22.697Z,20.33
2022-09-28T00:38:32.697Z,20.35
2022-09-28T00:38:42.692Z,20.33
2022-09-28T00:38:52.697Z,20.33
2022-09-28T00:39:02.691Z,20.31
2022-09-28T00:39:22.688Z,20.31
2022-09-28T00:39:32.690Z,20.33
2022-09-28T00:39:42.694Z,20.30
2022-09-28T00:39:52.689Z,20.33
2022-09-28T00:40:02.687Z,20.31
2022-09-28T00:40:12.688Z,20.31
2022-09-28T00:40:22.808Z,20.33
2022-09-28T00:40:32.714Z,20.33
2022-09-28T00:40:42.734Z,20.34
2022-09-28T00:40:52.758Z,20.30
2022-09-28T00:41:02.676Z,20.31
2022-09-28T00:41:12.678Z,20.34
2022-09-28T00:41:22.680Z,20.30
2022-09-28T00:41:32.679Z,20.31
2022-09-28T00:41:52.673Z,20.33
2022-09-28T00:42:02.672Z,20.33
2022-09-28T00:42:12.674Z,20.35
2022-09-28T00:42:22.667Z,20.33
2022-09-28T00:42:32.671Z,20.33
2022-09-28T00:42:42.680Z,20.33
2022-09-28T00:42:52.668Z,20.31
2022-09-28T00:43:02.666Z,20.31
2022-09-28T00:43:12.668Z,20.33
2022-09-28T00:43:22.662Z,20.33
2022-09-28T00:43:32.672Z,20.34
2022-09-28T00:43:42.660Z,20.33
2022-09-28T00:43:52.663Z,20.31
2022-09-28T00:44:02.658Z,20.33
2022-09-28T00:44:12.664Z,20.31
2022-09-28T00:44:22.656Z,20.33
2022-09-28T00:44:42.650Z,20.33
2022-09-28T00:44:52.654Z,20.30
2022-09-28T00:45:02.653Z,20.31
2022-09-28T00:45:12.650Z,20.33
2022-09-28T00:45:22.666Z,20.31
2022-09-28T00:45:32.677Z,20.30
2022-09-28T00:45:42.691Z,20.33
2022-09-28T00:45:52.707Z,20.31
2022-09-28T00:46:02.749Z,20.33
2022-09-28T00:46:12.708Z,20.31
2022-09-28T00:46:22.637Z,20.34
2022-09-28T00:46:32.643Z,20.35
2022-09-28T00:46:42.638Z,20.31
2022-09-28T00:46:52.787Z,20.34
2022-09-28T00:47:12.638Z,20.34
2022-09-28T00:47:22.633Z,20.31
2022-09-28T00:47:32.644Z,20.33
2022-09-28T00:47:42.632Z,20.34
2022-09-28T00:47:52.649Z,20.33
2022-09-28T00:48:02.634Z,20.33
2022-09-28T00:48:12.635Z,20.33
2022-09-28T00:48:22.629Z,20.33
2022-09-28T00:48:32.626Z,20.35
2022-09-28T00:48:42.627Z,20.35
2022-09-28T00:48:52.625Z,20.31
2022-09-28T00:49:02.624Z,20.31
2022-09-28T00:49:12.622Z,20.33
2022-09-28T00:49:22.628Z,20.35
2022-09-28T00:49:42.619Z,20.33
2022-09-28T00:49:52.616Z,20.34
2022-09-28T00:50:02.617Z,20.34
2022-09-28T00:50:12.619Z,20.34
2022-09-28T00:50:22.618Z,20.34
2022-09-28T00:50:32.612Z,20.34
2022-09-28T00:50:42.613Z,20.33
2022-09-28T00:50:52.609Z,20.34
2022-09-28T00:51:02.636Z,20.34
2022-09-28T00:51:12.614Z,20.31
2022-09-28T00:51:22.610Z,20.34
2022-09-28T00:51:32.610Z,20.33
2022-09-28T00:51:42.604Z,20.33
2022-09-28T00:51:52.620Z,20.31
2022-09-28T00:52:12.600Z,20.33
2022-09-28T00:52:22.607Z,20.33
2022-09-28T00:52:32.598Z,20.31
2022-09-28T00:52:42.600Z,20.33
2022-09-28T00:52:52.597Z,20.30
2022-09-28T00:53:02.613Z,20.31
2022-09-28T00:53:12.593Z,20.30
2022-09-28T00:53:22.595Z,20.34
2022-09-28T00:53:32.592Z,20.34
2022-09-28T00:53:42.591Z,20.34
2022-09-28T00:53:52.588Z,20.31
2022-09-28T00:54:02.589Z,20.34
2022-09-28T00:54:12.592Z,20.30
2022-09-28T00:54:22.608Z,20.30
2022-09-28T00:54:32.587Z,20.30
2022-09-28T00:54:42.584Z,20.33
2022-09-28T00:54:52.581Z,20.27
2022-09-28T00:55:02.586Z,20.30
2022-09-28T00:55:12.581Z,20.31
2022-09-28T00:55:22.583Z,20.30
2022-09-28T00:55:32.579Z,20.30
2022-09-28T00:55:42.578Z,20.30
2022-09-28T00:55:52.581Z,20.31
2022-09-28T00:56:02.581Z,20.33
2022-09-28T00:56:12.572Z,20.30
2022-09-28T00:56:22.574Z,20.30
2022-09-28T00:56:32.572Z,20.30
2022-09-28T00:56:42.572Z,20.27
2022-09-28T00:56:52.567Z,20.30
2022-09-28T00:57:12.567Z,20.27
2022-09-28T00:57:22.567Z,20.30
2022-09-28T00:57:32.562Z,20.30
2022-09-28T00:57:42.565Z,20.33
2022-09-28T00:57:52.559Z,20.30
2022-09-28T00:58:02.578Z,20.30
2022-09-28T00:58:12.561Z,20.31
2022-09-28T00:58:22.573Z,20.27
2022-09-28T00:58:32.556Z,20.31
2022-09-28T00:58:42.558Z,20.30
2022-09-28T00:58:52.568Z,20.31
2022-09-28T00:59:02.554Z,20.30
2022-09-28T00:59:12.636Z,20.33
2022-09-28T00:59:22.558Z,20.31
2022-09-28T00:59:42.567Z,20.30
2022-09-28T00:59:52.544Z,20.27
2022-09-28T01:00:02.546Z,20.30
2022-09-28T01:00:12.548Z,20.27
2022-09-28T01:00:22.549Z,20.31
2022-09-28T01:00:32.623Z,20.31
2022-09-28T01:00:42.579Z,20.30
2022-09-28T01:00:52.615Z,20.31
2022-09-28T01:01:02.585Z,20.30
2022-09-28T01:01:12.649Z,20.30
2022-09-28T01:01:22.627Z,20.30
2022-09-28T01:01:32.539Z,20.30
2022-09-28T01:01:42.593Z,20.27
2022-09-28T01:02:02.627Z,20.31
2022-09-28T01:02:12.602Z,20.31
2022-09-28T01:02:22.608Z,20.30
2022-09-28T01:02:32.658Z,20.31
2022-09-28T01:02:42.531Z,20.33
2022-09-28T01:02:52.523Z,20.27
2022-09-28T01:03:02.525Z,20.33
2022-09-28T01:03:12.523Z,20.30
2022-09-28T01:03:22.522Z,20.30
2022-09-28T01:03:32.532Z,20.30
2022-09-28T01:03:42.522Z,20.30
2022-09-28T01:03:52.521Z,20.31
2022-09-28T01:04:02.519Z,20.30
2022-09-28T01:04:12.516Z,20.33
2022-09-28T01:04:32.513Z,20.31
2022-09-28T01:04:42.517Z,20.31
2022-09-28T01:04:52.509Z,20.31
2022-09-28T01:05:02.512Z,20.34
2022-09-28T01:05:12.534Z,20.31
2022-09-28T01:05:22.510Z,20.31
2022-09-28T01:05:32.505Z,20.33
2022-09-28T01:05:42.508Z,20.33
2022-09-28T01:05:52.502Z,20.30
2022-09-28T01:06:02.506Z,20.30
2022-09-28T01:06:12.501Z,20.27
2022-09-28T01:06:22.505Z,20.27
2022-09-28T01:06:32.497Z,20.31
2022-09-28T01:06:42.499Z,20.27
2022-09-28T01:07:02.498Z,20.30
2022-09-28T01:07:12.492Z,20.31
2022-09-28T01:07:22.501Z,20.33
2022-09-28T01:07:32.489Z,20.27
2022-09-28T01:07:42.493Z,20.31
2022-09-28T01:07:52.488Z,20.31
2022-09-28T01:08:02.490Z,20.31
2022-09-28T01:08:12.488Z,20.31
2022-09-28T01:08:22.494Z,20.27
2022-09-28T01:08:32.485Z,20.27
2022-09-28T01:08:42.485Z,20.33
2022-09-28T01:08:52.481Z,20.30
2022-09-28T01:09:02.489Z,20.27
2022-09-28T01:09:12.480Z,20.31
2022-09-28T01:09:32.478Z,20.33
2022-09-28T01:09:42.480Z,20.31
2022-09-28T01:09:52.474Z,20.30
2022-09-28T01:10:02.478Z,20.34
2022-09-28T01:10:12.474Z,20.30
2022-09-28T01:10:22.488Z,20.30
2022-09-28T01:10:32.469Z,20.30
2022-09-28T01:10:42.475Z,20.33
2022-09-28T01:10:52.467Z,20.31
2022-09-28T01:11:02.473Z,20.30
2022-09-28T01:11:12.466Z,20.31
2022-09-28T01:11:22.474Z,20.30
2022-09-28T01:11:32.464Z,20.31
2022-09-28T01:11:42.467Z,20.33
2022-09-28T01:11:52.461Z,20.30
2022-09-28T01:12:02.462Z,20.33
2022-09-28T01:12:12.476Z,20.30
2022-09-28T01:12:22.469Z,20.31
2022-09-28T01:12:32.471Z,20.30
2022-09-28T01:12:42.464Z,20.31
2022-09-28T01:12:52.455Z,20.30
2022-09-28T01:13:02.467Z,20.31
2022-09-28T01:13:12.470Z,20.30
2022-09-28T01:13:22.478Z,20.31
2022-09-28T01:13:32.451Z,20.31
2022-09-28T01:13:42.452Z,20.31
2022-09-28T01:13:52.449Z,20.31
2022-09-28T01:14:02.451Z,20.34
2022-09-28T01:14:12.452Z,20.31
2022-09-28T01:14:32.441Z,20.30
2022-09-28T01:14:42.445Z,20.33
2022-09-28T01:14:52.440Z,20.33
2022-09-28T01:15:02.440Z,20.30
2022-09-28T01:15:12.439Z,20.31
2022-09-28T01:15:22.441Z,20.30
2022-09-28T01:15:32.437Z,20.30
2022-09-28T01:15:42.435Z,20.27
2022-09-28T01:15:52.494Z,20.31
2022-09-28T01:16:02.473Z,20.26
2022-09-28T01:16:12.493Z,20.30
2022-09-28T01:16:22.494Z,20.34
2022-09-28T01:16:32.484Z,20.30
2022-09-28T01:16:42.544Z,20.30
2022-09-28T01:17:02.430Z,20.31
2022-09-28T01:17:12.425Z,20.27
2022-09-28T01:17:22.425Z,20.30
2022-09-28T01:17:32.421Z,20.27
2022-09-28T01:17:42.424Z,20.31
2022-09-28T01:17:52.421Z,20.31
2022-09-28T01:18:02.422Z,20.31
2022-09-28T01:18:12.418Z,20.31
2022-09-28T01:18:22.435Z,20.25
2022-09-28T01:18:32.415Z,20.30
2022-09-28T01:18:42.420Z,20.27
2022-09-28T01:18:52.415Z,20.27
2022-09-28T01:19:02.416Z,20.27
2022-09-28T01:19:12.417Z,20.31
2022-09-28T01:19:22.415Z,20.33
2022-09-28T01:19:32.410Z,20.31
2022-09-28T01:19:52.405Z,20.31
2022-09-28T01:20:02.407Z,20.27
2022-09-28T01:20:12.403Z,20.27
2022-09-28T01:20:22.409Z,20.33
2022-09-28T01:20:32.401Z,20.31
2022-09-28T01:20:42.403Z,20.31
2022-09-28T01:20:52.402Z,20.30
2022-09-28T01:21:02.406Z,20.33
2022-09-28T01:21:12.413Z,20.27
2022-09-28T01:21:22.398Z,20.31
2022-09-28T01:21:32.413Z,20.31
2022-09-28T01:21:42.398Z,20.30
2022-09-28T01:21:52.389Z,20.31
2022-09-28T01:22:02.394Z,20.30
2022-09-28T01:22:12.392Z,20.30
2022-09-28T01:22:32.387Z,20.30
2022-09-28T01:22:42.391Z,20.30
2022-09-28T01:22:52.387Z,20.30
2022-09-28T01:23:02.391Z,20.30
2022-09-28T01:23:12.394Z,20.27
2022-09-28T01:23:22.412Z,20.30
2022-09-28T01:23:32.378Z,20.26
2022-09-28T01:23:42.410Z,20.27
2022-09-28T01:23:52.379Z,20.30
2022-09-28T01:24:02.380Z,20.27
2022-09-28T01:24:12.377Z,20.31
2022-09-28T01:24:22.379Z,20.27
2022-09-28T01:24:32.375Z,20.26
2022-09-28T01:24:42.377Z,20.30
2022-09-28T01:24:52.372Z,20.31
2022-09-28T01:25:12.374Z,20.25
2022-09-28T01:25:22.373Z,20.27
2022-09-28T01:25:32.366Z,20.30
2022-09-28T01:25:42.378Z,20.30
2022-09-28T01:25:52.368Z,20.27
2022-09-28T01:26:02.367Z,20.26
2022-09-28T01:26:12.365Z,20.27
2022-09-28T01:26:22.363Z,20.26
2022-09-28T01:26:32.373Z,20.27
2022-09-28T01:26:42.362Z,20.27
2022-09-28T01:26:52.358Z,20.26
2022-09-28T01:27:02.360Z,20.26
2022-09-28T01:27:12.365Z,20.27
2022-09-28T01:27:22.358Z,20.27
2022-09-28T01:27:42.374Z,20.31
2022-09-28T01:27:52.367Z,20.30
2022-09-28T01:28:02.357Z,20.26
2022-09-28T01:28:12.348Z,20.27
2022-09-28T01:28:22.352Z,20.27
2022-09-28T01:28:32.346Z,20.27
2022-09-28T01:28:42.347Z,20.30
2022-09-28T01:28:52.343Z,20.25
2022-09-28T01:29:02.345Z,20.30
2022-09-28T01:29:12.339Z,20.27
2022-09-28T01:29:22.345Z,20.30
2022-09-28T01:29:32.338Z,20.27
2022-09-28T01:29:42.340Z,20.30
2022-09-28T01:29:52.335Z,20.26
2022-09-28T01:30:02.340Z,20.27
2022-09-28T01:30:22.336Z,20.26
2022-09-28T01:30:32.333Z,20.27
2022-09-28T01:30:42.336Z,20.27
2022-09-28T01:30:52.337Z,20.31
2022-09-28T01:31:02.330Z,20.30
2022-09-28T01:31:12.416Z,20.27
2022-09-28T01:31:22.408Z,20.26
2022-09-28T01:31:32.381Z,20.30
2022-09-28T01:31:42.351Z,20.27
2022-09-28T01:31:52.438Z,20.25
2022-09-28T01:32:02.451Z,20.27
2022-09-28T01:32:12.350Z,20.31
2022-09-28T01:32:22.321Z,20.26
2022-09-28T01:32:32.321Z,20.27
2022-09-28T01:32:42.318Z,20.27
2022-09-28T01:32:52.320Z,20.27
2022-09-28T01:33:12.316Z,20.27
2022-09-28T01:33:22.311Z,20.27
2022-09-28T01:33:32.317Z,20.27
2022-09-28T01:33:42.310Z,20.26
2022-09-28T01:33:52.311Z,20.30
2022-09-28T01:34:02.307Z,20.27
2022-09-28T01:34:12.308Z,20.31
2022-09-28T01:34:22.303Z,20.31
2022-09-28T01:34:32.307Z,20.31
2022-09-28T01:34:42.302Z,20.25
2022-09-28T01:34:52.305Z,20.25
2022-09-28T01:35:02.302Z,20.26
2022-09-28T01:35:12.304Z,20.27
2022-09-28T01:35:22.331Z,20.26
2022-09-28T01:35:32.300Z,20.25
2022-09-28T01:35:42.297Z,20.30
2022-09-28T01:36:02.292Z,20.27
2022-09-28T01:36:12.299Z,20.26
2022-09-28T01:36:22.292Z,20.27
2022-09-28T01:36:32.295Z,20.26
2022-09-28T01:36:42.289Z,20.26
2022-09-28T01:36:52.292Z,20.27
2022-09-28T01:37:02.287Z,20.25
2022-09-28T01:37:12.290Z,20.26
2022-09-28T01:37:22.299Z,20.30
2022-09-28T01:37:32.304Z,20.30
2022-09-28T01:37:42.282Z,20.25
2022-09-28T01:37:52.289Z,20.27
2022-09-28T01:38:02.279Z,20.27
2022-09-28T01:38:12.285Z,20.31
2022-09-28T01:38:32.280Z,20.26
2022-09-28T01:38:42.277Z,20.26
2022-09-28T01:38:52.276Z,20.27
2022-09-28T01:39:02.273Z,20.27
2022-09-28T01:39:12.275Z,20.27
2022-09-28T01:39:22.268Z,20.27
2022-09-28T01:39:32.271Z,20.26
2022-09-28T01:39:42.268Z,20.27
2022-09-28T01:39:52.271Z,20.25
2022-09-28T01:40:02.265Z,20.25
2022-09-28T01:40:12.266Z,20.27
2022-09-28T01:40:22.324Z,20.30
2022-09-28T01:40:32.372Z,20.26
2022-09-28T01:40:42.297Z,20.30
2022-09-28T01:41:02.264Z,20.30
2022-09-28T01:41:12.259Z,20.31
2022-09-28T01:41:22.259Z,20.27
2022-09-28T01:41:32.259Z,20.30
2022-09-28T01:41:42.258Z,20.27
2022-09-28T01:41:52.255Z,20.27
2022-09-28T01:42:02.252Z,20.27
2022-09-28T01:42:12.252Z,20.27
2022-09-28T01:42:22.248Z,20.27
2022-09-28T01:42:32.254Z,20.27
2022-09-28T01:42:42.263Z,20.26
2022-09-28T01:42:52.252Z,20.26
2022-09-28T01:43:02.244Z,20.26
2022-09-28T01:43:12.248Z,20.27
2022-09-28T01:43:22.246Z,20.27
2022-09-28T01:43:42.241Z,20.30
2022-09-28T01:43:52.242Z,20.25
2022-09-28T01:44:02.241Z,20.25
2022-09-28T01:44:12.242Z,20.30
2022-09-28T01:44:22.240Z,20.30
2022-09-28T01:44:32.239Z,20.30
2022-09-28T01:44:42.235Z,20.30
2022-09-28T01:44:52.252Z,20.27
2022-09-28T01:45:02.231Z,20.30
2022-09-28T01:45:12.232Z,20.26
2022-09-28T01:45:22.227Z,20.31
2022-09-28T01:45:32.257Z,20.27
2022-09-28T01:45:42.266Z,20.27
2022-09-28T01:45:52.302Z,20.27
2022-09-28T01:46:02.346Z,20.27
2022-09-28T01:46:12.282Z,20.30
2022-09-28T01:46:32.229Z,20.27
2022-09-28T01:46:42.219Z,20.26
2022-09-28T01:46:52.223Z,20.26
2022-09-28T01:47:02.218Z,20.31
2022-09-28T01:47:12.225Z,20.30
2022-09-28T01:47:22.225Z,20.26
2022-09-28T01:47:32.219Z,20.30
2022-09-28T01:47:42.208Z,20.26
2022-09-28T01:47:52.232Z,20.26
2022-09-28T01:48:02.209Z,20.30
2022-09-28T01:48:12.212Z,20.27
2022-09-28T01:48:22.215Z,20.27
2022-09-28T01:48:32.210Z,20.27
2022-09-28T01:48:42.221Z,20.23
2022-09-28T01:48:52.208Z,20.26
2022-09-28T01:49:02.202Z,20.26
2022-09-28T01:49:22.198Z,20.25
2022-09-28T01:49:32.205Z,20.27
2022-09-28T01:49:42.200Z,20.27
2022-09-28T01:49:52.202Z,20.26
2022-09-28T01:50:02.199Z,20.25
2022-09-28T01:50:12.199Z,20.26
2022-09-28T01:50:22.196Z,20.25
2022-09-28T01:50:32.194Z,20.25
2022-09-28T01:50:42.191Z,20.22
2022-09-28T01:50:52.192Z,20.25
2022-09-28T01:51:02.189Z,20.26
2022-09-28T01:51:12.193Z,20.26
2022-09-28T01:51:22.192Z,20.26
2022-09-28T01:51:32.188Z,20.27
2022-09-28T01:51:42.189Z,20.27
2022-09-28T01:51:52.188Z,20.26
2022-09-28T01:52:02.205Z,20.25
2022-09-28T01:52:12.184Z,20.26
2022-09-28T01:52:22.185Z,20.31
2022-09-28T01:52:32.180Z,20.23
2022-09-28T01:52:42.178Z,20.25
2022-09-28T01:52:52.177Z,20.27
2022-09-28T01:53:02.174Z,20.27
2022-09-28T01:53:12.177Z,20.26
2022-09-28T01:53:22.176Z,20.30
2022-09-28T01:53:32.175Z,20.25
2022-09-28T01:53:42.171Z,20.26
2022-09-28T01:53:52.175Z,20.26
2022-09-28T01:54:02.169Z,20.30
2022-09-28T01:54:12.174Z,20.26
2022-09-28T01:54:32.166Z,20.26
2022-09-28T01:54:42.165Z,20.26
2022-09-28T01:54:52.164Z,20.27
2022-09-28T01:55:02.162Z,20.26
2022-09-28T01:55:12.162Z,20.27
2022-09-28T01:55:22.159Z,20.25
2022-09-28T01:55:32.167Z,20.26
2022-09-28T01:55:42.156Z,20.26
2022-09-28T01:55:52.159Z,20.27
2022-09-28T01:56:02.156Z,20.23
2022-09-28T01:56:12.155Z,20.25
2022-09-28T01:56:22.161Z,20.26
2022-09-28T01:56:32.152Z,20.30
2022-09-28T01:56:42.151Z,20.26
2022-09-28T01:56:52.152Z,20.27
2022-09-28T01:57:02.149Z,20.27
2022-09-28T01:57:12.152Z,20.26
2022-09-28T01:57:32.183Z,20.26
2022-09-28T01:57:42.140Z,20.27
2022-09-28T01:57:52.144Z,20.26
2022-09-28T01:58:02.155Z,20.25
2022-09-28T01:58:12.143Z,20.26
2022-09-28T01:58:22.139Z,20.27
2022-09-28T01:58:32.140Z,20.27
2022-09-28T01:58:42.137Z,20.27
2022-09-28T01:58:52.140Z,20.26
2022-09-28T01:59:02.133Z,20.25
2022-09-28T01:59:12.134Z,20.27
2022-09-28T01:59:22.131Z,20.26
2022-09-28T01:59:32.146Z,20.26
2022-09-28T01:59:42.131Z,20.26
2022-09-28T02:00:02.140Z,20.26
2022-09-28T02:00:12.129Z,20.26
2022-09-28T02:00:22.124Z,20.25
2022-09-28T02:00:32.155Z,20.25
2022-09-28T02:00:42.164Z,20.26
2022-09-28T02:00:52.193Z,20.26
2022-09-28T02:01:02.150Z,20.27
2022-09-28T02:01:12.210Z,20.23
2022-09-28T02:01:22.170Z,20.23
2022-09-28T02:01:32.122Z,20.25
2022-09-28T02:01:42.187Z,20.26
2022-09-28T02:01:52.167Z,20.26
2022-09-28T02:02:02.161Z,20.27
2022-09-28T02:02:12.164Z,20.26
2022-09-28T02:02:32.152Z,20.25
2022-09-28T02:02:42.107Z,20.26
2022-09-28T02:02:52.111Z,20.26
2022-09-28T02:03:02.105Z,20.26
2022-09-28T02:03:12.106Z,20.26
2022-09-28T02:03:22.103Z,20.27
2022-09-28T02:03:32.120Z,20.26
2022-09-28T02:03:42.101Z,20.27
2022-09-28T02:03:52.104Z,20.26
2022-09-28T02:04:02.097Z,20.26
2022-09-28T02:04:12.102Z,20.26
2022-09-28T02:04:22.112Z,20.26
2022-09-28T02:04:32.101Z,20.25
2022-09-28T02:04:42.095Z,20.23
2022-09-28T02:04:52.095Z,20.25
2022-09-28T02:05:02.098Z,20.26
2022-09-28T02:05:12.092Z,20.26
2022-09-28T02:05:22.087Z,20.27
2022-09-28T02:05:32.089Z,20.26
2022-09-28T02:05:42.086Z,20.26
2022-09-28T02:05:52.089Z,20.25
2022-09-28T02:06:02.087Z,20.25
2022-09-28T02:06:12.091Z,20.26
2022-09-28T02:06:22.083Z,20.25
2022-09-28T02:06:32.087Z,20.27
2022-09-28T02:06:42.081Z,20.26
2022-09-28T02:06:52.080Z,20.26
2022-09-28T02:07:02.078Z,20.23
2022-09-28T02:07:12.080Z,20.25
2022-09-28T02:07:22.075Z,20.25
2022-09-28T02:07:32.077Z,20.23
2022-09-28T02:07:52.074Z,20.25
2022-09-28T02:08:02.072Z,20.25
2022-09-28T02:08:12.074Z,20.25
2022-09-28T02:08:22.070Z,20.27
2022-09-28T02:08:32.068Z,20.26
2022-09-28T02:08:42.071Z,20.25
2022-09-28T02:08:52.067Z,20.25
2022-09-28T02:09:02.063Z,20.25
2022-09-28T02:09:12.084Z,20.23
2022-09-28T02:09:22.059Z,20.25
2022-09-28T02:09:33.867Z,20.27
2022-09-28T02:09:42.061Z,20.25
2022-09-28T02:09:52.061Z,20.23
2022-09-28T02:10:02.056Z,20.26
2022-09-28T02:10:12.064Z,20.26
2022-09-28T02:10:22.053Z,20.25
2022-09-28T02:10:32.057Z,20.25
2022-09-28T02:10:42.053Z,20.25
2022-09-28T02:10:52.070Z,20.26
2022-09-28T02:11:02.050Z,20.26
2022-09-28T02:11:12.054Z,20.23
2022-09-28T02:11:22.046Z,20.26
2022-09-28T02:11:32.050Z,20.25
2022-09-28T02:11:42.044Z,20.25
2022-09-28T02:11:52.045Z,20.26
2022-09-28T02:12:02.041Z,20.23
2022-09-28T02:12:12.041Z,20.25
2022-09-28T02:12:22.039Z,20.26
2022-09-28T02:12:32.042Z,20.26
2022-09-28T02:12:42.035Z,20.23
2022-09-28T02:13:02.035Z,20.23
2022-09-28T02:13:12.039Z,20.22
2022-09-28T02:13:22.037Z,20.25
2022-09-28T02:13:32.036Z,20.25
2022-09-28T02:13:42.034Z,20.23
2022-09-28T02:13:52.028Z,20.25
2022-09-28T02:14:02.030Z,20.25
2022-09-28T02:14:12.028Z,20.23
2022-09-28T02:14:22.027Z,20.23
2022-09-28T02:14:32.023Z,20.22
2022-09-28T02:14:42.028Z,20.20
2022-09-28T02:14:52.023Z,20.22
2022-09-28T02:15:02.023Z,20.23
2022-09-28T02:15:12.042Z,20.25
2022-09-28T02:15:32.017Z,20.25
2022-09-28T02:15:42.020Z,20.23
2022-09-28T02:15:52.032Z,20.25